Terminal Aerodrome Forecast
Issued by NWS Charleston, SC

Home | Current Version | Previous Version | Text Only | Print | Product List | Glossary On
Versions: 1 2 3 4 5 6 7 8 9 10 11 12 13 14 15 16 17 18 19 20 21
000
FTUS42 KCHS 232300
TAFCHS
TAF
KCHS 232323Z 2400/2424 01013G23KT P6SM -RA SCT008 OVC010
     FM241500 02012G18KT P6SM -RA SCT010 OVC015
     FM241900 02010G16KT P6SM SCT015 OVC020=

USA.gov is the U.S. government's official web portal to all federal, state and local government web resources and services.